Mamamia — ZJL9286 — position and weather

sailwx.info

Track history (hours):
 
Tides and Currents Weather Stations Pressure Air Temp Water Temp Dewpoint Dewpoint Depression Visibility Wind Speed Wind Dir Waves Ship Positions

Mamamia

Last reported at 2017-Oct-17 10:24 UTC. Time now 2017-Oct-17 11:10 UTC.
Position N 38°52' W 077°01'.

Length 39 m.

Type: Pleasure craft. MMSI: 378112301.

Date/timePositionNaut miles runAvg speedWind from/ knotsBaromVisibWave heightAir tempDewpointWater temp
2017-Oct-17 10:24N 38°52' W 077°01'0 0.0
2017-Oct-17 09:59N 38°52' W 077°01'0 0.0
2017-Oct-17 09:29N 38°52' W 077°01'0 0.0
2017-Oct-17 08:50N 38°52' W 077°01'0 0.0
2017-Oct-17 08:29N 38°52' W 077°01'0 0.0
2017-Oct-17 07:53N 38°52' W 077°01'0 0.0
2017-Oct-17 07:21N 38°52' W 077°01'0 0.0
2017-Oct-17 06:57N 38°52' W 077°01'0 0.0
2017-Oct-17 06:21N 38°52' W 077°01'0 0.0
2017-Oct-17 06:00N 38°52' W 077°01'0 0.0
2017-Oct-17 05:30N 38°52' W 077°01'0 0.0
2017-Oct-17 05:00N 38°52' W 077°01'0 0.0
2017-Oct-17 04:08N 38°52' W 077°01'0 0.0
2017-Oct-17 03:50N 38°52' W 077°01'0 0.0
2017-Oct-17 01:08N 38°52' W 077°01'0 0.0
2017-Oct-17 00:59N 38°52' W 077°01'0 0.0
2017-Oct-17 00:11N 38°52' W 077°01'0 0.0
2017-Oct-16 23:59N 38°52' W 077°01'0 0.0
2017-Oct-16 23:20N 38°52' W 077°01'0 0.0
2017-Oct-16 22:34N 38°52' W 077°01'0 0.0
2017-Oct-16 22:25N 38°52' W 077°01'0 0.0
2017-Oct-16 21:49N 38°52' W 077°01'0 0.0
2017-Oct-16 21:28N 38°52' W 077°01'0 0.0
2017-Oct-16 19:25N 38°52' W 077°01'0 0.0
2017-Oct-16 18:37N 38°52' W 077°01'0 0.0
2017-Oct-16 16:58N 38°52' W 077°01'0 0.0
2017-Oct-16 16:20N 38°52' W 077°01'0 0.0
2017-Oct-16 15:59N 38°52' W 077°01'0 0.0
2017-Oct-16 14:54N 38°52' W 077°01'0 0.0
2017-Oct-16 14:19N 38°52' W 077°01'0 0.0
2017-Oct-16 12:57N 38°52' W 077°01'0 0.0
2017-Oct-16 12:28N 38°52' W 077°01'0 0.0
2017-Oct-16 11:54N 38°52' W 077°01'0 0.0
2017-Oct-16 11:21N 38°52' W 077°01'0 0.0
2017-Oct-16 10:57N 38°52' W 077°01'0 0.0
2017-Oct-16 10:27N 38°52' W 077°01'0 0.0
2017-Oct-16 09:51N 38°52' W 077°01'0 0.0
2017-Oct-16 09:09N 38°52' W 077°01'0 0.0
2017-Oct-16 08:45N 38°52' W 077°01'0 0.0
2017-Oct-16 08:27N 38°52' W 077°01'0 0.0
2017-Oct-16 07:58N 38°52' W 077°01'0 0.0
2017-Oct-15 18:30N 38°52' W 077°01'0 0.0
2017-Oct-15 17:51N 38°53' W 077°01'0 0.5
2017-Oct-15 17:19N 38°53' W 077°02'0 0.0
2017-Oct-15 16:56N 38°53' W 077°02'0 0.0
2017-Oct-15 16:14N 38°53' W 077°02'0 0.0
2017-Oct-15 15:59N 38°53' W 077°02'0 0.0
2017-Oct-15 15:20N 38°53' W 077°02'0 0.0
2017-Oct-15 14:47N 38°53' W 077°02'0 0.0
2017-Oct-15 13:14N 38°53' W 077°02'0 0.0
2017-Oct-15 12:50N 38°53' W 077°02'0 0.0
2017-Oct-15 12:29N 38°53' W 077°02'0 0.0
2017-Oct-15 11:11N 38°53' W 077°02'0 0.0
2017-Oct-15 10:38N 38°53' W 077°02'0 0.0
2017-Oct-15 10:14N 38°53' W 077°02'0 0.0
2017-Oct-15 09:44N 38°53' W 077°02'0 0.0
2017-Oct-15 09:02N 38°53' W 077°02'0 0.0
2017-Oct-15 08:50N 38°53' W 077°02'0 0.0
2017-Oct-15 08:29N 38°53' W 077°02'0 0.0
2017-Oct-15 07:53N 38°53' W 077°02'0 0.0
2017-Oct-15 05:56N 38°53' W 077°02'0 0.0
2017-Oct-15 05:25N 38°53' W 077°02'0 0.0
2017-Oct-15 04:58N 38°53' W 077°02'0 0.0
2017-Oct-15 04:27N 38°53' W 077°02'0 0.0
2017-Oct-15 03:33N 38°53' W 077°02'0 0.0
2017-Oct-15 03:09N 38°53' W 077°02'0 0.0
2017-Oct-15 03:00N 38°53' W 077°02'0 0.0
2017-Oct-15 01:33N 38°53' W 077°02'0 0.0
2017-Oct-15 01:21N 38°53' W 077°02'0 0.0
2017-Oct-15 00:39N 38°53' W 077°02'0 0.0
2017-Oct-15 00:30N 38°53' W 077°02'0 0.0
2017-Oct-14 23:54N 38°53' W 077°02'0 0.0
2017-Oct-14 23:30N 38°53' W 077°02'1 2.1
2017-Oct-14 23:00N 38°52' W 077°01'3 6.8
2017-Oct-14 22:30N 38°48' W 077°02'3 1.0
2017-Oct-14 19:10N 38°45' W 077°02'1 8.0
2017-Oct-14 18:59N 38°47' W 077°02'4 8.1
2017-Oct-14 18:30N 38°50' W 077°01'2 3.5
2017-Oct-14 17:51N 38°53' W 077°02'0 0.0
2017-Oct-14 17:21N 38°53' W 077°02'0 0.0
2017-Oct-14 16:45N 38°53' W 077°02'0 0.0
2017-Oct-14 16:30N 38°53' W 077°02'0 0.0
2017-Oct-14 16:00N 38°53' W 077°02'0 0.0
2017-Oct-14 15:21N 38°53' W 077°02'0 0.0
2017-Oct-14 14:45N 38°53' W 077°02'0 0.0
2017-Oct-14 14:21N 38°53' W 077°02'0 0.0
2017-Oct-14 13:54N 38°53' W 077°02'0 0.0
2017-Oct-14 13:18N 38°53' W 077°02'0 0.0
2017-Oct-14 13:00N 38°53' W 077°02'0 0.0
2017-Oct-14 12:30N 38°53' W 077°02'0 0.0
2017-Oct-14 11:48N 38°53' W 077°02'0 0.0
2017-Oct-14 11:27N 38°53' W 077°02'0 0.0
2017-Oct-14 10:45N 38°53' W 077°02'0 0.0
2017-Oct-14 10:24N 38°53' W 077°02'0 0.0
2017-Oct-14 09:54N 38°53' W 077°02'0 0.0
2017-Oct-14 09:24N 38°53' W 077°02'0 0.0
2017-Oct-14 08:48N 38°53' W 077°02'0 0.0
2017-Oct-14 08:27N 38°53' W 077°02'0 0.0
2017-Oct-14 07:45N 38°53' W 077°02'0 0.0
2017-Oct-14 07:21N 38°53' W 077°02'0 0.0
2017-Oct-14 06:57N 38°53' W 077°02'0 0.0
2017-Oct-14 06:27N 38°53' W 077°02'0 0.0
2017-Oct-14 05:54N 38°53' W 077°02'0 0.0
2017-Oct-14 05:24N 38°53' W 077°02'0 0.0
2017-Oct-14 05:00N 38°53' W 077°02'0 0.0
2017-Oct-14 04:30N 38°53' W 077°02'0 0.0
2017-Oct-14 03:57N 38°53' W 077°02'0 0.0
2017-Oct-14 03:30N 38°53' W 077°02'0 0.0
2017-Oct-14 02:48N 38°53' W 077°02'0 0.0
2017-Oct-14 02:30N 38°53' W 077°02'0 0.0
2017-Oct-14 01:57N 38°53' W 077°02'1 0.5
2017-Oct-14 00:19N 38°52' W 077°01'2 6.0
2017-Oct-13 23:59N 38°50' W 077°02'1 1.1
2017-Oct-13 23:30N 38°50' W 077°02'0 0.8
2017-Oct-13 22:59N 38°50' W 077°02'3 5.8
2017-Oct-13 22:29N 38°47' W 077°02'2 2.8
2017-Oct-13 21:56N 38°49' W 077°02'4 8.2
2017-Oct-13 21:29N 38°52' W 077°01'0 1.0
2017-Oct-13 21:00N 38°53' W 077°02'0 0.0
2017-Oct-13 20:24N 38°53' W 077°02'0 0.0
2017-Oct-13 20:00N 38°53' W 077°02'0 0.0
2017-Oct-13 19:23N 38°53' W 077°02'0 0.0
2017-Oct-13 18:41N 38°53' W 077°02'0 0.0
2017-Oct-13 18:05N 38°53' W 077°02'0 0.0
2017-Oct-13 17:47N 38°53' W 077°02'0 0.0
2017-Oct-13 16:41N 38°53' W 077°02'0 0.0
2017-Oct-13 16:29N 38°53' W 077°02'0 0.0
2017-Oct-13 15:11N 38°53' W 077°02'0 0.0
2017-Oct-13 14:54N 38°53' W 077°02'0 0.0
2017-Oct-13 14:10N 38°53' W 077°02'0 0.0
2017-Oct-13 13:58N 38°53' W 077°02'0 0.0
2017-Oct-13 13:24N 38°53' W 077°02'0 0.0
2017-Oct-13 12:54N 38°53' W 077°02'0 0.0
2017-Oct-13 12:27N 38°53' W 077°02'0 0.0
2017-Oct-13 11:48N 38°53' W 077°02'0 0.0
2017-Oct-13 11:28N 38°53' W 077°02'0 0.0
2017-Oct-13 10:51N 38°53' W 077°02'0 0.0
2017-Oct-13 10:15N 38°53' W 077°02'0 0.0
2017-Oct-13 09:45N 38°53' W 077°02'0 0.0
2017-Oct-13 09:21N 38°53' W 077°02'0 0.0
2017-Oct-13 09:00N 38°53' W 077°02'0 0.0
2017-Oct-13 08:19N 38°53' W 077°02'0 0.0
2017-Oct-13 07:16N 38°53' W 077°02'0 0.0
2017-Oct-13 06:58N 38°53' W 077°02'0 0.0
2017-Oct-13 06:28N 38°53' W 077°02'0 0.0
2017-Oct-13 05:45N 38°53' W 077°02'0 0.0
2017-Oct-13 05:18N 38°53' W 077°02'0 0.0
2017-Oct-13 04:47N 38°53' W 077°02'0 0.0
2017-Oct-13 04:23N 38°53' W 077°02'0 0.0
2017-Oct-13 03:57N 38°53' W 077°02'0 0.0
2017-Oct-13 03:27N 38°53' W 077°02'0 0.0
2017-Oct-13 02:48N 38°53' W 077°02'0 0.0
2017-Oct-13 02:09N 38°53' W 077°02'0 0.0
2017-Oct-13 01:48N 38°53' W 077°02'0 0.0
2017-Oct-13 01:30N 38°53' W 077°02'0 0.0
2017-Oct-13 01:00N 38°53' W 077°02'0 0.0
2017-Oct-13 00:15N 38°53' W 077°02'0 0.0
2017-Oct-12 23:54N 38°53' W 077°02'0 0.0
2017-Oct-12 23:25N 38°53' W 077°02'0 0.0
2017-Oct-12 22:58N 38°53' W 077°02'0 0.0
2017-Oct-12 22:28N 38°53' W 077°02'0 0.0
2017-Oct-12 21:58N 38°53' W 077°02'0 0.0
2017-Oct-12 21:28N 38°53' W 077°02'0 0.0
2017-Oct-12 20:55N 38°53' W 077°02'0 0.0
2017-Oct-12 20:19N 38°53' W 077°02'0 0.0
2017-Oct-12 19:49N 38°53' W 077°02'0 0.0
2017-Oct-12 19:22N 38°53' W 077°02'0 0.0
2017-Oct-12 18:55N 38°53' W 077°02'0 0.0
2017-Oct-12 18:27N 38°53' W 077°02'0 0.0
2017-Oct-12 17:52N 38°53' W 077°02'0 0.0
2017-Oct-12 17:28N 38°53' W 077°02'0 0.0
2017-Oct-12 16:55N 38°53' W 077°02'0 0.0
2017-Oct-12 15:29N 38°53' W 077°02'0 0.0
2017-Oct-12 14:55N 38°53' W 077°02'0 0.0
2017-Oct-12 14:28N 38°53' W 077°02'0 0.0
2017-Oct-12 13:58N 38°53' W 077°02'0 0.0
2017-Oct-12 13:17N 38°53' W 077°02'0 0.0
2017-Oct-12 11:25N 38°53' W 077°02'0 0.0
2017-Oct-12 10:53N 38°53' W 077°02'0 0.0
2017-Oct-12 10:29N 38°53' W 077°02'0 0.0
2017-Oct-12 09:54N 38°53' W 077°02'0 0.0
2017-Oct-12 09:26N 38°53' W 077°02'0 0.0
2017-Oct-12 07:21N 38°53' W 077°02'0 0.0
2017-Oct-12 06:44N 38°53' W 077°02'0 0.0
2017-Oct-12 04:37N 38°53' W 077°02'0 0.0
2017-Oct-12 04:28N 38°53' W 077°02'0 0.0
2017-Oct-12 04:00N 38°53' W 077°02'0 0.0
2017-Oct-12 03:28N 38°53' W 077°02'0 0.0
2017-Oct-12 02:55N 38°53' W 077°02'0 0.0
2017-Oct-12 02:24N 38°53' W 077°02'0 0.0
2017-Oct-11 21:22N 38°53' W 077°02'0 0.0
2017-Oct-11 20:51N 38°53' W 077°02'0 0.0
2017-Oct-11 20:27N 38°53' W 077°02'0 0.0
2017-Oct-11 20:00N 38°53' W 077°02'0 0.0
2017-Oct-11 19:15N 38°53' W 077°02'0 0.0
2017-Oct-11 18:06N 38°53' W 077°02'0 0.0
2017-Oct-11 17:49N 38°53' W 077°02'0 0.0
2017-Oct-11 17:30N 38°53' W 077°02'0 0.0
2017-Oct-11 16:48N 38°53' W 077°02'0 0.0
2017-Oct-11 00:00N 38°53' W 077°02'0 0.0
2017-Oct-10 23:27N 38°53' W 077°02'0 0.0
2017-Oct-10 22:32N 38°53' W 077°02'0 0.0
2017-Oct-10 22:08N 38°53' W 077°02'0 0.0
2017-Oct-10 21:56N 38°53' W 077°02'0 0.0
2017-Oct-10 21:05N 38°53' W 077°02'0 0.0
2017-Oct-10 20:56N 38°53' W 077°02'0 0.0
2017-Oct-10 18:57N 38°53' W 077°02'0 0.0
2017-Oct-10 18:27N 38°53' W 077°02'0 0.0
2017-Oct-10 17:40N 38°53' W 077°02'0 0.0
2017-Oct-10 17:24N 38°53' W 077°02'0 0.0
2017-Oct-10 16:54N 38°53' W 077°02'0 0.0
2017-Oct-10 11:34N 38°53' W 077°02'0 0.0
2017-Oct-10 11:16N 38°53' W 077°02'0 0.0
2017-Oct-10 10:49N 38°53' W 077°02'0 0.0
2017-Oct-10 10:22N 38°53' W 077°02'0 0.0
2017-Oct-10 09:52N 38°53' W 077°02'0 0.0
2017-Oct-10 09:27N 38°53' W 077°02'0 0.0
2017-Oct-10 07:55N 38°53' W 077°02'0 0.0
2017-Oct-10 07:07N 38°53' W 077°02'0 0.0
2017-Oct-10 06:46N 38°53' W 077°02'0 0.0
2017-Oct-10 06:16N 38°53' W 077°02'0 0.0
2017-Oct-09 18:20N 38°53' W 077°02'0 0.0
2017-Oct-09 17:53N 38°53' W 077°02'0 0.0
2017-Oct-09 17:29N 38°53' W 077°02'0 0.0
2017-Oct-09 16:32N 38°53' W 077°02'0 0.0
2017-Oct-09 16:26N 38°53' W 077°02'0 0.0
2017-Oct-09 15:56N 38°53' W 077°02'0 0.0
2017-Oct-09 15:20N 38°53' W 077°02'0 0.0
2017-Oct-09 14:01N 38°53' W 077°02'0 0.0
2017-Oct-09 12:59N 38°53' W 077°02'0 0.0
2017-Oct-09 11:56N 38°53' W 077°02'0 0.0
2017-Oct-09 11:05N 38°53' W 077°02'0 0.0
2017-Oct-09 10:50N 38°53' W 077°02'0 0.0
2017-Oct-09 10:11N 38°53' W 077°02'0 0.0
2017-Oct-09 08:59N 38°53' W 077°02'0 0.0
2017-Oct-09 07:59N 38°53' W 077°02'0 0.0
2017-Oct-09 07:26N 38°53' W 077°02'0 0.0
2017-Oct-09 05:02N 38°53' W 077°02'0 0.0
2017-Oct-09 04:08N 38°53' W 077°02'0 0.0
2017-Oct-09 01:48N 38°53' W 077°02'0 0.0
2017-Oct-09 01:24N 38°53' W 077°02'0 0.0
2017-Oct-09 00:48N 38°53' W 077°02'0 0.0
2017-Oct-09 00:30N 38°53' W 077°02'0 0.0
2017-Oct-09 00:00N 38°53' W 077°02'0 0.0
2017-Oct-08 23:28N 38°53' W 077°02'0 0.0
2017-Oct-08 23:00N 38°53' W 077°02'0 0.0
2017-Oct-08 22:27N 38°53' W 077°02'0 0.0
2017-Oct-08 21:36N 38°53' W 077°02'0 0.0
2017-Oct-08 21:30N 38°53' W 077°02'0 0.0
2017-Oct-08 20:59N 38°53' W 077°02'0 0.0
2017-Oct-08 20:24N 38°53' W 077°02'0 0.0
2017-Oct-08 19:58N 38°53' W 077°02'0 0.0
2017-Oct-08 19:25N 38°53' W 077°02'0 0.0
2017-Oct-08 18:58N 38°53' W 077°02'0 0.0
2017-Oct-08 18:22N 38°53' W 077°02'0 0.0
2017-Oct-08 17:58N 38°53' W 077°02'0 0.0
2017-Oct-08 15:02N 38°53' W 077°02'0 0.0
2017-Oct-08 14:59N 38°53' W 077°02'0 0.0
2017-Oct-08 14:15N 38°53' W 077°02'0 0.0
2017-Oct-08 14:00N 38°53' W 077°02'0 0.0
2017-Oct-08 13:26N 38°53' W 077°02'0 0.0
2017-Oct-08 12:53N 38°53' W 077°02'0 0.0
2017-Oct-08 12:29N 38°53' W 077°02'0 0.0
2017-Oct-08 11:56N 38°53' W 077°02'0 0.0
2017-Oct-08 11:03N 38°53' W 077°02'0 0.0
2017-Oct-08 10:56N 38°53' W 077°02'0 0.0
2017-Oct-08 10:29N 38°53' W 077°02'0 0.0
2017-Oct-08 09:54N 38°53' W 077°02'0 0.0
2017-Oct-08 09:20N 38°53' W 077°02'0 0.0
2017-Oct-08 08:18N 38°53' W 077°02'0 0.0
2017-Oct-08 07:47N 38°53' W 077°02'0 0.0
2017-Oct-08 05:35N 38°53' W 077°02'0 0.0
2017-Oct-08 05:23N 38°53' W 077°02'0 0.0
2017-Oct-08 05:00N 38°53' W 077°02'0 0.0
2017-Oct-08 04:30N 38°53' W 077°02'0 0.0
2017-Oct-08 03:36N 38°53' W 077°02'0 0.0
2017-Oct-08 03:27N 38°53' W 077°02'0 0.0
2017-Oct-08 02:45N 38°53' W 077°02'0 0.0
2017-Oct-08 01:57N 38°53' W 077°02'0 0.0
2017-Oct-08 01:12N 38°53' W 077°02'1 5.3
2017-Oct-08 01:00N 38°52' W 077°01'4 8.2
2017-Oct-08 00:30N 38°48' W 077°02'3 2.1
2017-Oct-07 23:09N 38°45' W 077°02'1 7.6
2017-Oct-07 23:00N 38°46' W 077°02'4 7.4
2017-Oct-07 22:29N 38°50' W 077°02'3 4.7
2017-Oct-07 21:52N 38°53' W 077°02'0 0.0
2017-Oct-07 21:22N 38°53' W 077°02'0 0.0
2017-Oct-07 20:58N 38°53' W 077°02'0 0.0
2017-Oct-07 14:43N 38°53' W 077°02'0 0.0
2017-Oct-07 14:25N 38°53' W 077°02'0 0.0
2017-Oct-07 13:56N 38°53' W 077°02'0 0.0
2017-Oct-07 13:24N 38°53' W 077°02'0 0.0
2017-Oct-07 12:54N 38°53' W 077°02'0 0.0
2017-Oct-07 12:02N 38°53' W 077°02'0 0.0
2017-Oct-07 11:59N 38°53' W 077°02'0 0.0
2017-Oct-07 11:23N 38°53' W 077°02'0 0.0
2017-Oct-07 10:35N 38°53' W 077°02'  
Track history (hours):
 
Tides and Currents Weather Stations Pressure Air Temp Water Temp Dewpoint Dewpoint Depression Visibility Wind Speed Wind Dir Waves Ship Positions

Mamamia

Last reported at 2017-Oct-17 10:24 UTC. Time now 2017-Oct-17 11:10 UTC.
Position N 38°52' W 077°01'.

Length 39 m.

Type: Pleasure craft. MMSI: 378112301.

Date/timePositionNaut miles runAvg speedWind from/ knotsBaromVisibWave heightAir tempDewpointWater temp
2017-Oct-17 10:24N 38°52' W 077°01'0 0.0
2017-Oct-17 09:59N 38°52' W 077°01'0 0.0
2017-Oct-17 09:29N 38°52' W 077°01'0 0.0
2017-Oct-17 08:50N 38°52' W 077°01'0 0.0
2017-Oct-17 08:29N 38°52' W 077°01'0 0.0
2017-Oct-17 07:53N 38°52' W 077°01'0 0.0
2017-Oct-17 07:21N 38°52' W 077°01'0 0.0
2017-Oct-17 06:57N 38°52' W 077°01'0 0.0
2017-Oct-17 06:21N 38°52' W 077°01'0 0.0
2017-Oct-17 06:00N 38°52' W 077°01'0 0.0
2017-Oct-17 05:30N 38°52' W 077°01'0 0.0
2017-Oct-17 05:00N 38°52' W 077°01'0 0.0
2017-Oct-17 04:08N 38°52' W 077°01'0 0.0
2017-Oct-17 03:50N 38°52' W 077°01'0 0.0
2017-Oct-17 01:08N 38°52' W 077°01'0 0.0
2017-Oct-17 00:59N 38°52' W 077°01'0 0.0
2017-Oct-17 00:11N 38°52' W 077°01'0 0.0
2017-Oct-16 23:59N 38°52' W 077°01'0 0.0
2017-Oct-16 23:20N 38°52' W 077°01'0 0.0
2017-Oct-16 22:34N 38°52' W 077°01'0 0.0
2017-Oct-16 22:25N 38°52' W 077°01'0 0.0
2017-Oct-16 21:49N 38°52' W 077°01'0 0.0
2017-Oct-16 21:28N 38°52' W 077°01'0 0.0
2017-Oct-16 19:25N 38°52' W 077°01'0 0.0
2017-Oct-16 18:37N 38°52' W 077°01'0 0.0
2017-Oct-16 16:58N 38°52' W 077°01'0 0.0
2017-Oct-16 16:20N 38°52' W 077°01'0 0.0
2017-Oct-16 15:59N 38°52' W 077°01'0 0.0
2017-Oct-16 14:54N 38°52' W 077°01'0 0.0
2017-Oct-16 14:19N 38°52' W 077°01'0 0.0
2017-Oct-16 12:57N 38°52' W 077°01'0 0.0
2017-Oct-16 12:28N 38°52' W 077°01'0 0.0
2017-Oct-16 11:54N 38°52' W 077°01'0 0.0
2017-Oct-16 11:21N 38°52' W 077°01'0 0.0
2017-Oct-16 10:57N 38°52' W 077°01'0 0.0
2017-Oct-16 10:27N 38°52' W 077°01'0 0.0
2017-Oct-16 09:51N 38°52' W 077°01'0 0.0
2017-Oct-16 09:09N 38°52' W 077°01'0 0.0
2017-Oct-16 08:45N 38°52' W 077°01'0 0.0
2017-Oct-16 08:27N 38°52' W 077°01'0 0.0
2017-Oct-16 07:58N 38°52' W 077°01'0 0.0
2017-Oct-15 18:30N 38°52' W 077°01'0 0.0
2017-Oct-15 17:51N 38°53' W 077°01'0 0.5
2017-Oct-15 17:19N 38°53' W 077°02'0 0.0
2017-Oct-15 16:56N 38°53' W 077°02'0 0.0
2017-Oct-15 16:14N 38°53' W 077°02'0 0.0
2017-Oct-15 15:59N 38°53' W 077°02'0 0.0
2017-Oct-15 15:20N 38°53' W 077°02'0 0.0
2017-Oct-15 14:47N 38°53' W 077°02'0 0.0
2017-Oct-15 13:14N 38°53' W 077°02'0 0.0
2017-Oct-15 12:50N 38°53' W 077°02'0 0.0
2017-Oct-15 12:29N 38°53' W 077°02'0 0.0
2017-Oct-15 11:11N 38°53' W 077°02'0 0.0
2017-Oct-15 10:38N 38°53' W 077°02'0 0.0
2017-Oct-15 10:14N 38°53' W 077°02'0 0.0
2017-Oct-15 09:44N 38°53' W 077°02'0 0.0
2017-Oct-15 09:02N 38°53' W 077°02'0 0.0
2017-Oct-15 08:50N 38°53' W 077°02'0 0.0
2017-Oct-15 08:29N 38°53' W 077°02'0 0.0
2017-Oct-15 07:53N 38°53' W 077°02'0 0.0
2017-Oct-15 05:56N 38°53' W 077°02'0 0.0
2017-Oct-15 05:25N 38°53' W 077°02'0 0.0
2017-Oct-15 04:58N 38°53' W 077°02'0 0.0
2017-Oct-15 04:27N 38°53' W 077°02'0 0.0
2017-Oct-15 03:33N 38°53' W 077°02'0 0.0
2017-Oct-15 03:09N 38°53' W 077°02'0 0.0
2017-Oct-15 03:00N 38°53' W 077°02'0 0.0
2017-Oct-15 01:33N 38°53' W 077°02'0 0.0
2017-Oct-15 01:21N 38°53' W 077°02'0 0.0
2017-Oct-15 00:39N 38°53' W 077°02'0 0.0
2017-Oct-15 00:30N 38°53' W 077°02'0 0.0
2017-Oct-14 23:54N 38°53' W 077°02'0 0.0
2017-Oct-14 23:30N 38°53' W 077°02'1 2.1
2017-Oct-14 23:00N 38°52' W 077°01'3 6.8
2017-Oct-14 22:30N 38°48' W 077°02'3 1.0
2017-Oct-14 19:10N 38°45' W 077°02'1 8.0
2017-Oct-14 18:59N 38°47' W 077°02'4 8.1
2017-Oct-14 18:30N 38°50' W 077°01'2 3.5
2017-Oct-14 17:51N 38°53' W 077°02'0 0.0
2017-Oct-14 17:21N 38°53' W 077°02'0 0.0
2017-Oct-14 16:45N 38°53' W 077°02'0 0.0
2017-Oct-14 16:30N 38°53' W 077°02'0 0.0
2017-Oct-14 16:00N 38°53' W 077°02'0 0.0
2017-Oct-14 15:21N 38°53' W 077°02'0 0.0
2017-Oct-14 14:45N 38°53' W 077°02'0 0.0
2017-Oct-14 14:21N 38°53' W 077°02'0 0.0
2017-Oct-14 13:54N 38°53' W 077°02'0 0.0
2017-Oct-14 13:18N 38°53' W 077°02'0 0.0
2017-Oct-14 13:00N 38°53' W 077°02'0 0.0
2017-Oct-14 12:30N 38°53' W 077°02'0 0.0
2017-Oct-14 11:48N 38°53' W 077°02'0 0.0
2017-Oct-14 11:27N 38°53' W 077°02'0 0.0
2017-Oct-14 10:45N 38°53' W 077°02'0 0.0
2017-Oct-14 10:24N 38°53' W 077°02'0 0.0
2017-Oct-14 09:54N 38°53' W 077°02'0 0.0
2017-Oct-14 09:24N 38°53' W 077°02'0 0.0
2017-Oct-14 08:48N 38°53' W 077°02'0 0.0
2017-Oct-14 08:27N 38°53' W 077°02'0 0.0
2017-Oct-14 07:45N 38°53' W 077°02'0 0.0
2017-Oct-14 07:21N 38°53' W 077°02'0 0.0
2017-Oct-14 06:57N 38°53' W 077°02'0 0.0
2017-Oct-14 06:27N 38°53' W 077°02'0 0.0
2017-Oct-14 05:54N 38°53' W 077°02'0 0.0
2017-Oct-14 05:24N 38°53' W 077°02'0 0.0
2017-Oct-14 05:00N 38°53' W 077°02'0 0.0
2017-Oct-14 04:30N 38°53' W 077°02'0 0.0
2017-Oct-14 03:57N 38°53' W 077°02'0 0.0
2017-Oct-14 03:30N 38°53' W 077°02'0 0.0
2017-Oct-14 02:48N 38°53' W 077°02'0 0.0
2017-Oct-14 02:30N 38°53' W 077°02'0 0.0
2017-Oct-14 01:57N 38°53' W 077°02'1 0.5
2017-Oct-14 00:19N 38°52' W 077°01'2 6.0
2017-Oct-13 23:59N 38°50' W 077°02'1 1.1
2017-Oct-13 23:30N 38°50' W 077°02'0 0.8
2017-Oct-13 22:59N 38°50' W 077°02'3 5.8
2017-Oct-13 22:29N 38°47' W 077°02'2 2.8
2017-Oct-13 21:56N 38°49' W 077°02'4 8.2
2017-Oct-13 21:29N 38°52' W 077°01'0 1.0
2017-Oct-13 21:00N 38°53' W 077°02'0 0.0
2017-Oct-13 20:24N 38°53' W 077°02'0 0.0
2017-Oct-13 20:00N 38°53' W 077°02'0 0.0
2017-Oct-13 19:23N 38°53' W 077°02'0 0.0
2017-Oct-13 18:41N 38°53' W 077°02'0 0.0
2017-Oct-13 18:05N 38°53' W 077°02'0 0.0
2017-Oct-13 17:47N 38°53' W 077°02'0 0.0
2017-Oct-13 16:41N 38°53' W 077°02'0 0.0
2017-Oct-13 16:29N 38°53' W 077°02'0 0.0
2017-Oct-13 15:11N 38°53' W 077°02'0 0.0
2017-Oct-13 14:54N 38°53' W 077°02'0 0.0
2017-Oct-13 14:10N 38°53' W 077°02'0 0.0
2017-Oct-13 13:58N 38°53' W 077°02'0 0.0
2017-Oct-13 13:24N 38°53' W 077°02'0 0.0
2017-Oct-13 12:54N 38°53' W 077°02'0 0.0
2017-Oct-13 12:27N 38°53' W 077°02'0 0.0
2017-Oct-13 11:48N 38°53' W 077°02'0 0.0
2017-Oct-13 11:28N 38°53' W 077°02'0 0.0
2017-Oct-13 10:51N 38°53' W 077°02'0 0.0
2017-Oct-13 10:15N 38°53' W 077°02'0 0.0
2017-Oct-13 09:45N 38°53' W 077°02'0 0.0
2017-Oct-13 09:21N 38°53' W 077°02'0 0.0
2017-Oct-13 09:00N 38°53' W 077°02'0 0.0
2017-Oct-13 08:19N 38°53' W 077°02'0 0.0
2017-Oct-13 07:16N 38°53' W 077°02'0 0.0
2017-Oct-13 06:58N 38°53' W 077°02'0 0.0
2017-Oct-13 06:28N 38°53' W 077°02'0 0.0
2017-Oct-13 05:45N 38°53' W 077°02'0 0.0
2017-Oct-13 05:18N 38°53' W 077°02'0 0.0
2017-Oct-13 04:47N 38°53' W 077°02'0 0.0
2017-Oct-13 04:23N 38°53' W 077°02'0 0.0
2017-Oct-13 03:57N 38°53' W 077°02'0 0.0
2017-Oct-13 03:27N 38°53' W 077°02'0 0.0
2017-Oct-13 02:48N 38°53' W 077°02'0 0.0
2017-Oct-13 02:09N 38°53' W 077°02'0 0.0
2017-Oct-13 01:48N 38°53' W 077°02'0 0.0
2017-Oct-13 01:30N 38°53' W 077°02'0 0.0
2017-Oct-13 01:00N 38°53' W 077°02'0 0.0
2017-Oct-13 00:15N 38°53' W 077°02'0 0.0
2017-Oct-12 23:54N 38°53' W 077°02'0 0.0
2017-Oct-12 23:25N 38°53' W 077°02'0 0.0
2017-Oct-12 22:58N 38°53' W 077°02'0 0.0
2017-Oct-12 22:28N 38°53' W 077°02'0 0.0
2017-Oct-12 21:58N 38°53' W 077°02'0 0.0
2017-Oct-12 21:28N 38°53' W 077°02'0 0.0
2017-Oct-12 20:55N 38°53' W 077°02'0 0.0
2017-Oct-12 20:19N 38°53' W 077°02'0 0.0
2017-Oct-12 19:49N 38°53' W 077°02'0 0.0
2017-Oct-12 19:22N 38°53' W 077°02'0 0.0
2017-Oct-12 18:55N 38°53' W 077°02'0 0.0
2017-Oct-12 18:27N 38°53' W 077°02'0 0.0
2017-Oct-12 17:52N 38°53' W 077°02'0 0.0
2017-Oct-12 17:28N 38°53' W 077°02'0 0.0
2017-Oct-12 16:55N 38°53' W 077°02'0 0.0
2017-Oct-12 15:29N 38°53' W 077°02'0 0.0
2017-Oct-12 14:55N 38°53' W 077°02'0 0.0
2017-Oct-12 14:28N 38°53' W 077°02'0 0.0
2017-Oct-12 13:58N 38°53' W 077°02'0 0.0
2017-Oct-12 13:17N 38°53' W 077°02'0 0.0
2017-Oct-12 11:25N 38°53' W 077°02'0 0.0
2017-Oct-12 10:53N 38°53' W 077°02'0 0.0
2017-Oct-12 10:29N 38°53' W 077°02'0 0.0
2017-Oct-12 09:54N 38°53' W 077°02'0 0.0
2017-Oct-12 09:26N 38°53' W 077°02'0 0.0
2017-Oct-12 07:21N 38°53' W 077°02'0 0.0
2017-Oct-12 06:44N 38°53' W 077°02'0 0.0
2017-Oct-12 04:37N 38°53' W 077°02'0 0.0
2017-Oct-12 04:28N 38°53' W 077°02'0 0.0
2017-Oct-12 04:00N 38°53' W 077°02'0 0.0
2017-Oct-12 03:28N 38°53' W 077°02'0 0.0
2017-Oct-12 02:55N 38°53' W 077°02'0 0.0
2017-Oct-12 02:24N 38°53' W 077°02'0 0.0
2017-Oct-11 21:22N 38°53' W 077°02'0 0.0
2017-Oct-11 20:51N 38°53' W 077°02'0 0.0
2017-Oct-11 20:27N 38°53' W 077°02'0 0.0
2017-Oct-11 20:00N 38°53' W 077°02'0 0.0
2017-Oct-11 19:15N 38°53' W 077°02'0 0.0
2017-Oct-11 18:06N 38°53' W 077°02'0 0.0
2017-Oct-11 17:49N 38°53' W 077°02'0 0.0
2017-Oct-11 17:30N 38°53' W 077°02'0 0.0
2017-Oct-11 16:48N 38°53' W 077°02'0 0.0
2017-Oct-11 00:00N 38°53' W 077°02'0 0.0
2017-Oct-10 23:27N 38°53' W 077°02'0 0.0
2017-Oct-10 22:32N 38°53' W 077°02'0 0.0
2017-Oct-10 22:08N 38°53' W 077°02'0 0.0
2017-Oct-10 21:56N 38°53' W 077°02'0 0.0
2017-Oct-10 21:05N 38°53' W 077°02'0 0.0
2017-Oct-10 20:56N 38°53' W 077°02'0 0.0
2017-Oct-10 18:57N 38°53' W 077°02'0 0.0
2017-Oct-10 18:27N 38°53' W 077°02'0 0.0
2017-Oct-10 17:40N 38°53' W 077°02'0 0.0
2017-Oct-10 17:24N 38°53' W 077°02'0 0.0
2017-Oct-10 16:54N 38°53' W 077°02'0 0.0
2017-Oct-10 11:34N 38°53' W 077°02'0 0.0
2017-Oct-10 11:16N 38°53' W 077°02'0 0.0
2017-Oct-10 10:49N 38°53' W 077°02'0 0.0
2017-Oct-10 10:22N 38°53' W 077°02'0 0.0
2017-Oct-10 09:52N 38°53' W 077°02'0 0.0
2017-Oct-10 09:27N 38°53' W 077°02'0 0.0
2017-Oct-10 07:55N 38°53' W 077°02'0 0.0
2017-Oct-10 07:07N 38°53' W 077°02'0 0.0
2017-Oct-10 06:46N 38°53' W 077°02'0 0.0
2017-Oct-10 06:16N 38°53' W 077°02'0 0.0
2017-Oct-09 18:20N 38°53' W 077°02'0 0.0
2017-Oct-09 17:53N 38°53' W 077°02'0 0.0
2017-Oct-09 17:29N 38°53' W 077°02'0 0.0
2017-Oct-09 16:32N 38°53' W 077°02'0 0.0
2017-Oct-09 16:26N 38°53' W 077°02'0 0.0
2017-Oct-09 15:56N 38°53' W 077°02'0 0.0
2017-Oct-09 15:20N 38°53' W 077°02'0 0.0
2017-Oct-09 14:01N 38°53' W 077°02'0 0.0
2017-Oct-09 12:59N 38°53' W 077°02'0 0.0
2017-Oct-09 11:56N 38°53' W 077°02'0 0.0
2017-Oct-09 11:05N 38°53' W 077°02'0 0.0
2017-Oct-09 10:50N 38°53' W 077°02'0 0.0
2017-Oct-09 10:11N 38°53' W 077°02'0 0.0
2017-Oct-09 08:59N 38°53' W 077°02'0 0.0
2017-Oct-09 07:59N 38°53' W 077°02'0 0.0
2017-Oct-09 07:26N 38°53' W 077°02'0 0.0
2017-Oct-09 05:02N 38°53' W 077°02'0 0.0
2017-Oct-09 04:08N 38°53' W 077°02'0 0.0
2017-Oct-09 01:48N 38°53' W 077°02'0 0.0
2017-Oct-09 01:24N 38°53' W 077°02'0 0.0
2017-Oct-09 00:48N 38°53' W 077°02'0 0.0
2017-Oct-09 00:30N 38°53' W 077°02'0 0.0
2017-Oct-09 00:00N 38°53' W 077°02'0 0.0
2017-Oct-08 23:28N 38°53' W 077°02'0 0.0
2017-Oct-08 23:00N 38°53' W 077°02'0 0.0
2017-Oct-08 22:27N 38°53' W 077°02'0 0.0
2017-Oct-08 21:36N 38°53' W 077°02'0 0.0
2017-Oct-08 21:30N 38°53' W 077°02'0 0.0
2017-Oct-08 20:59N 38°53' W 077°02'0 0.0
2017-Oct-08 20:24N 38°53' W 077°02'0 0.0
2017-Oct-08 19:58N 38°53' W 077°02'0 0.0
2017-Oct-08 19:25N 38°53' W 077°02'0 0.0
2017-Oct-08 18:58N 38°53' W 077°02'0 0.0
2017-Oct-08 18:22N 38°53' W 077°02'0 0.0
2017-Oct-08 17:58N 38°53' W 077°02'0 0.0
2017-Oct-08 15:02N 38°53' W 077°02'0 0.0
2017-Oct-08 14:59N 38°53' W 077°02'0 0.0
2017-Oct-08 14:15N 38°53' W 077°02'0 0.0
2017-Oct-08 14:00N 38°53' W 077°02'0 0.0
2017-Oct-08 13:26N 38°53' W 077°02'0 0.0
2017-Oct-08 12:53N 38°53' W 077°02'0 0.0
2017-Oct-08 12:29N 38°53' W 077°02'0 0.0
2017-Oct-08 11:56N 38°53' W 077°02'0 0.0
2017-Oct-08 11:03N 38°53' W 077°02'0 0.0
2017-Oct-08 10:56N 38°53' W 077°02'0 0.0
2017-Oct-08 10:29N 38°53' W 077°02'0 0.0
2017-Oct-08 09:54N 38°53' W 077°02'0 0.0
2017-Oct-08 09:20N 38°53' W 077°02'0 0.0
2017-Oct-08 08:18N 38°53' W 077°02'0 0.0
2017-Oct-08 07:47N 38°53' W 077°02'0 0.0
2017-Oct-08 05:35N 38°53' W 077°02'0 0.0
2017-Oct-08 05:23N 38°53' W 077°02'0 0.0
2017-Oct-08 05:00N 38°53' W 077°02'0 0.0
2017-Oct-08 04:30N 38°53' W 077°02'0 0.0
2017-Oct-08 03:36N 38°53' W 077°02'0 0.0
2017-Oct-08 03:27N 38°53' W 077°02'0 0.0
2017-Oct-08 02:45N 38°53' W 077°02'0 0.0
2017-Oct-08 01:57N 38°53' W 077°02'0 0.0
2017-Oct-08 01:12N 38°53' W 077°02'1 5.3
2017-Oct-08 01:00N 38°52' W 077°01'4 8.2
2017-Oct-08 00:30N 38°48' W 077°02'3 2.1
2017-Oct-07 23:09N 38°45' W 077°02'1 7.6
2017-Oct-07 23:00N 38°46' W 077°02'4 7.4
2017-Oct-07 22:29N 38°50' W 077°02'3 4.7
2017-Oct-07 21:52N 38°53' W 077°02'0 0.0
2017-Oct-07 21:22N 38°53' W 077°02'0 0.0
2017-Oct-07 20:58N 38°53' W 077°02'0 0.0
2017-Oct-07 14:43N 38°53' W 077°02'0 0.0
2017-Oct-07 14:25N 38°53' W 077°02'0 0.0
2017-Oct-07 13:56N 38°53' W 077°02'0 0.0
2017-Oct-07 13:24N 38°53' W 077°02'0 0.0
2017-Oct-07 12:54N 38°53' W 077°02'0 0.0
2017-Oct-07 12:02N 38°53' W 077°02'0 0.0
2017-Oct-07 11:59N 38°53' W 077°02'0 0.0
2017-Oct-07 11:23N 38°53' W 077°02'0 0.0
2017-Oct-07 10:35N 38°53' W 077°02'  

Dump ship's entire track history